Time;durP1;ratioP1;P1;durP2;ratioP2;P2;SDS_P1;SDS_P2;PMS_P1;PMS_P2;Temp;Humidity;BMP_temperature;BMP_pressure;BME280_temperature;BME280_humidity;BME280_pressure;Samples;Min_cycle;Max_cycle;Signal;HPM_P1;HPM_P2
2023/03/20 00:00:50;;;;;;;13.95;4.10;;;9.40;99.90;;;;;;5031373;28;20728;-70
2023/03/20 00:03:16;;;;;;;12.70;4.03;;;9.40;99.90;;;;;;5014686;28;20029;-70
2023/03/20 00:05:42;;;;;;;12.05;4.47;;;9.40;99.90;;;;;;5032794;28;20473;-69
2023/03/20 00:08:08;;;;;;;14.55;4.13;;;9.40;99.90;;;;;;5032516;28;20036;-69
2023/03/20 00:10:59;;;;;;;15.85;5.10;;;9.40;99.90;;;;;;5032638;28;20061;-69
2023/03/20 00:13:27;;;;;;;13.60;4.88;;;9.40;99.90;;;;;;5000122;28;20044;-69
2023/03/20 00:15:53;;;;;;;16.70;6.05;;;9.40;99.90;;;;;;5031248;28;20026;-69
2023/03/20 00:18:22;;;;;;;17.33;7.05;;;9.40;99.90;;;;;;5013308;28;20048;-69
2023/03/20 00:20:50;;;;;;;16.98;5.95;;;9.40;99.90;;;;;;5028534;28;20080;-69
2023/03/20 00:23:16;;;;;;;16.17;5.57;;;9.40;99.90;;;;;;4997027;28;20036;-70
2023/03/20 00:25:44;;;;;;;20.08;5.60;;;9.50;99.90;;;;;;5030114;28;20029;-70
2023/03/20 00:28:39;;;;;;;20.65;5.88;;;9.50;99.90;;;;;;5028294;28;20480;-70
2023/03/20 00:31:16;;;;;;;15.40;4.68;;;9.40;99.90;;;;;;5026557;28;20440;-69
2023/03/20 00:33:42;;;;;;;14.70;5.28;;;9.40;99.90;;;;;;4992520;28;20061;-69
2023/03/20 00:36:08;;;;;;;14.30;3.60;;;9.40;99.90;;;;;;5030769;28;20057;-70
2023/03/20 00:38:34;;;;;;;11.98;4.15;;;9.40;99.90;;;;;;5030184;28;20029;-69
2023/03/20 00:41:00;;;;;;;14.30;3.88;;;9.40;99.90;;;;;;5031038;28;20079;-69
2023/03/20 00:43:26;;;;;;;13.27;3.78;;;9.40;99.90;;;;;;5013151;28;20021;-69
2023/03/20 00:45:52;;;;;;;18.92;4.13;;;9.30;99.90;;;;;;5011455;28;20124;-69
2023/03/20 00:48:18;;;;;;;13.93;4.05;;;9.30;99.90;;;;;;5031195;28;20117;-68
2023/03/20 00:50:44;;;;;;;13.77;4.18;;;9.30;99.90;;;;;;5029962;28;20104;-69
2023/03/20 00:53:10;;;;;;;11.35;3.42;;;9.30;99.90;;;;;;5030624;28;20112;-68
2023/03/20 00:55:39;;;;;;;10.88;3.45;;;9.30;99.90;;;;;;5030807;28;20029;-69
2023/03/20 00:58:05;;;;;;;11.55;3.58;;;9.30;99.90;;;;;;5030725;28;20101;-69
2023/03/20 01:00:39;;;;;;;14.30;4.10;;;9.30;99.90;;;;;;5030871;28;20034;-70
2023/03/20 01:03:15;;;;;;;10.65;3.55;;;9.20;99.90;;;;;;5028470;28;20037;-69
2023/03/20 01:05:41;;;;;;;10.18;3.05;;;9.20;99.90;;;;;;5013540;28;20061;-69
2023/03/20 01:08:16;;;;;;;13.10;3.83;;;9.20;99.90;;;;;;5029713;28;20025;-69
2023/03/20 01:10:44;;;;;;;10.93;3.47;;;9.10;99.90;;;;;;5012245;28;20025;-69
2023/03/20 01:13:25;;;;;;;10.45;2.20;;;9.10;99.90;;;;;;5010674;28;20053;-69
2023/03/20 01:15:54;;;;;;;8.48;2.83;;;9.00;99.90;;;;;;5028966;28;20091;-69
2023/03/20 01:18:22;;;;;;;15.77;3.22;;;9.00;99.90;;;;;;5011954;28;20025;-69
2023/03/20 01:20:48;;;;;;;16.13;3.40;;;8.90;99.90;;;;;;5011217;28;20037;-69
2023/03/20 01:23:14;;;;;;;12.55;3.42;;;8.90;99.90;;;;;;5029466;28;20045;-69
2023/03/20 01:25:41;;;;;;;10.65;3.50;;;9.00;99.90;;;;;;5030633;28;20099;-69
2023/03/20 01:28:17;;;;;;;9.98;2.97;;;8.90;99.90;;;;;;5011776;28;20109;-69
2023/03/20 01:30:43;;;;;;;13.55;3.88;;;9.00;99.90;;;;;;5012415;28;20085;-69
2023/03/20 01:33:15;;;;;;;9.50;3.20;;;9.00;99.90;;;;;;5012952;28;20049;-69
2023/03/20 01:35:42;;;;;;;12.23;3.15;;;9.00;99.90;;;;;;5027815;28;20021;-69
2023/03/20 01:38:22;;;;;;;13.40;3.03;;;9.00;99.90;;;;;;5007558;28;20481;-69
2023/03/20 01:41:03;;;;;;;8.95;2.83;;;9.10;99.90;;;;;;5009346;28;20041;-68
2023/03/20 01:43:29;;;;;;;11.15;3.15;;;9.10;99.90;;;;;;5013393;28;20022;-69
2023/03/20 01:46:18;;;;;;;11.68;2.83;;;9.10;99.90;;;;;;5032496;28;20029;-70
2023/03/20 01:48:53;;;;;;;12.07;3.05;;;9.10;99.90;;;;;;5029684;28;20030;-69
2023/03/20 01:51:26;;;;;;;12.90;3.47;;;9.10;99.90;;;;;;5031458;28;20100;-70
2023/03/20 01:54:01;;;;;;;13.13;3.15;;;9.20;99.90;;;;;;5033511;28;20057;-70
2023/03/20 01:56:30;;;;;;;8.73;2.75;;;9.10;99.90;;;;;;5017063;28;20025;-69
2023/03/20 01:59:03;;;;;;;11.95;2.85;;;9.20;99.90;;;;;;5034003;28;20103;-71
2023/03/20 02:01:29;;;;;;;11.60;3.00;;;9.20;99.90;;;;;;5030968;28;20040;-70
2023/03/20 02:03:56;;;;;;;6.55;2.72;;;9.20;99.90;;;;;;5032336;28;20037;-70
2023/03/20 02:06:23;;;;;;;14.77;3.72;;;9.10;99.90;;;;;;5013658;28;20037;-70
2023/03/20 02:08:51;;;;;;;13.50;3.50;;;9.20;99.90;;;;;;5015313;28;20099;-70
2023/03/20 02:11:30;;;;;;;11.20;3.45;;;9.20;99.90;;;;;;5032124;28;20109;-70
2023/03/20 02:13:58;;;;;;;10.80;3.65;;;9.10;99.90;;;;;;5031696;28;20075;-70
2023/03/20 02:16:24;;;;;;;10.15;3.60;;;9.20;99.90;;;;;;5033664;28;20057;-69
2023/03/20 02:18:52;;;;;;;9.82;3.42;;;9.20;99.90;;;;;;5031038;28;20033;-70
2023/03/20 02:22:07;;;;;;;14.50;4.05;;;9.10;99.90;;;;;;5030967;28;20116;-70
2023/03/20 02:25:01;;;;;;;7.15;2.80;;;9.10;99.90;;;;;;4943895;28;20057;-71
2023/03/20 02:27:48;;;;;;;7.72;3.20;;;9.00;99.90;;;;;;5033039;28;20086;-70
2023/03/20 02:30:41;;;;;;;9.45;3.15;;;8.90;99.90;;;;;;5031163;28;20029;-69
2023/03/20 02:33:34;;;;;;;10.48;4.00;;;8.90;99.90;;;;;;5031904;28;20037;-70
2023/03/20 02:36:39;;;;;;;13.98;4.68;;;8.90;99.90;;;;;;5018886;28;20046;-70
2023/03/20 02:39:23;;;;;;;13.82;4.10;;;8.80;99.90;;;;;;5016473;28;20037;-69
2023/03/20 02:42:32;;;;;;;15.25;4.57;;;8.80;99.90;;;;;;5029246;28;20049;-69
2023/03/20 02:45:12;;;;;;;15.75;4.32;;;8.80;99.90;;;;;;5021980;28;20033;-70
2023/03/20 02:48:01;;;;;;;12.85;4.70;;;8.80;99.90;;;;;;5020031;28;20044;-70
2023/03/20 02:50:46;;;;;;;17.92;5.15;;;8.80;99.90;;;;;;5034215;28;20404;-69
2023/03/20 02:53:33;;;;;;;12.43;4.00;;;8.80;99.90;;;;;;5033925;28;20026;-70
2023/03/20 02:56:42;;;;;;;14.18;5.05;;;8.80;99.90;;;;;;5033900;28;20025;-70
2023/03/20 02:59:55;;;;;;;12.13;3.88;;;8.90;99.90;;;;;;4936115;29;20490;-70
2023/03/20 03:02:28;;;;;;;11.15;4.40;;;8.90;99.90;;;;;;4947032;28;20047;-70
2023/03/20 03:05:00;;;;;;;19.65;5.65;;;8.90;99.90;;;;;;5029091;28;20025;-70
2023/03/20 03:07:29;;;;;;;15.85;5.90;;;8.90;99.90;;;;;;5016284;28;20060;-70
2023/03/20 03:10:01;;;;;;;11.25;4.72;;;8.90;99.90;;;;;;5033881;28;20037;-69
2023/03/20 03:12:34;;;;;;;;;;;8.90;99.90;;;;;;5034202;28;20029;-71
2023/03/20 03:15:03;;;;;;;18.90;6.07;;;9.00;99.90;;;;;;5033787;28;19905;-70
2023/03/20 03:17:32;;;;;;;12.05;4.82;;;8.90;99.90;;;;;;5033411;28;20112;-69
2023/03/20 03:20:04;;;;;;;16.85;5.82;;;8.90;99.90;;;;;;5033454;28;20025;-68
2023/03/20 03:22:30;;;;;;;;;;;8.90;99.90;;;;;;5034249;28;20044;-69
2023/03/20 03:24:56;;;;;;;18.83;5.70;;;8.90;99.90;;;;;;5033173;28;19905;-70
2023/03/20 03:27:38;;;;;;;15.88;6.40;;;8.90;99.90;;;;;;5015773;28;20079;-68
2023/03/20 03:30:11;;;;;;;22.50;8.18;;;8.80;99.90;;;;;;5021955;28;20018;-69
2023/03/20 03:33:27;;;;;;;18.92;7.65;;;8.80;99.90;;;;;;5015398;28;20099;-69
2023/03/20 03:36:26;;;;;;;20.38;8.18;;;8.80;99.90;;;;;;5023688;28;20087;-70
2023/03/20 03:39:06;;;;;;;23.13;9.27;;;8.70;99.90;;;;;;4947838;28;20050;-69
2023/03/20 03:41:43;;;;;;;25.70;8.63;;;8.70;99.90;;;;;;5032921;28;20037;-70
2023/03/20 03:44:21;;;;;;;23.48;9.95;;;8.70;99.90;;;;;;5022241;28;20088;-69
2023/03/20 03:46:53;;;;;;;24.08;8.52;;;8.60;99.90;;;;;;5033238;28;20076;-70
2023/03/20 03:49:32;;;;;;;24.13;9.82;;;8.60;99.90;;;;;;5030958;28;20026;-69
2023/03/20 03:52:04;;;;;;;27.45;10.70;;;8.50;99.90;;;;;;5010444;28;20036;-69
2023/03/20 03:54:34;;;;;;;23.23;9.32;;;8.50;99.90;;;;;;5033083;28;20079;-69
2023/03/20 03:57:02;;;;;;;22.15;8.93;;;8.60;99.90;;;;;;5032934;28;20029;-70
2023/03/20 03:59:36;;;;;;;26.40;10.55;;;8.50;99.90;;;;;;5015224;28;20034;-69
2023/03/20 04:02:04;;;;;;;23.65;10.13;;;8.50;99.90;;;;;;5020961;28;20108;-69
2023/03/20 04:04:33;;;;;;;25.50;11.10;;;8.50;99.90;;;;;;5031342;28;20036;-70
2023/03/20 04:06:59;;;;;;;25.58;9.73;;;8.50;99.90;;;;;;5032742;28;20469;-69
2023/03/20 04:09:24;;;;;;;23.58;9.77;;;8.50;99.90;;;;;;5014738;28;20033;-70
2023/03/20 04:11:51;;;;;;;25.42;10.25;;;8.50;99.90;;;;;;5032853;28;20040;-69
2023/03/20 04:14:18;;;;;;;26.67;10.98;;;8.50;99.90;;;;;;5015077;28;20036;-69
2023/03/20 04:16:44;;;;;;;26.17;12.10;;;8.50;99.90;;;;;;5032442;28;20028;-69
2023/03/20 04:19:10;;;;;;;27.88;11.55;;;8.50;99.90;;;;;;5032454;28;20029;-69
2023/03/20 04:21:35;;;;;;;23.27;10.43;;;8.60;99.90;;;;;;5032467;28;20488;-70
2023/03/20 04:24:01;;;;;;;23.63;12.13;;;8.60;99.90;;;;;;5032462;28;20104;-70
2023/03/20 04:26:27;;;;;;;27.17;10.30;;;8.60;99.90;;;;;;5032171;28;20052;-69
2023/03/20 04:28:52;;;;;;;25.83;10.05;;;8.60;99.90;;;;;;5032516;28;20025;-70
2023/03/20 04:31:19;;;;;;;22.20;8.82;;;8.70;99.90;;;;;;5031906;28;20053;-69
2023/03/20 04:33:45;;;;;;;23.63;10.02;;;8.70;99.90;;;;;;5032239;28;20485;-69
2023/03/20 04:36:11;;;;;;;25.85;8.90;;;8.70;99.90;;;;;;5032446;28;20038;-69
2023/03/20 04:38:37;;;;;;;24.30;9.57;;;8.70;99.90;;;;;;5032306;28;20014;-69
2023/03/20 04:41:03;;;;;;;24.15;10.20;;;8.80;99.90;;;;;;5032089;28;20075;-69
2023/03/20 04:43:29;;;;;;;20.27;7.85;;;8.70;99.90;;;;;;5032094;28;20478;-70
2023/03/20 04:45:55;;;;;;;24.73;9.52;;;8.70;99.90;;;;;;5029878;28;20068;-69
2023/03/20 04:48:20;;;;;;;21.30;9.20;;;8.70;99.90;;;;;;5018065;28;20025;-69
2023/03/20 04:50:47;;;;;;;21.40;8.68;;;8.80;99.90;;;;;;5025987;28;20025;-69
2023/03/20 04:53:14;;;;;;;27.58;10.45;;;8.70;99.90;;;;;;5031652;28;20505;-69
2023/03/20 04:55:40;;;;;;;23.15;9.63;;;8.70;99.90;;;;;;5031570;28;20445;-69
2023/03/20 04:58:06;;;;;;;22.90;8.20;;;8.80;99.90;;;;;;5031521;28;20444;-69
2023/03/20 05:00:31;;;;;;;27.35;9.77;;;8.80;99.90;;;;;;5031637;28;20029;-69
2023/03/20 05:02:57;;;;;;;27.05;9.60;;;8.80;99.90;;;;;;5031958;28;20044;-69
2023/03/20 05:05:23;;;;;;;28.85;11.95;;;8.80;99.90;;;;;;5032447;28;20470;-70
2023/03/20 05:07:50;;;;;;;22.30;9.48;;;8.80;99.90;;;;;;5031774;28;20026;-69
2023/03/20 05:10:15;;;;;;;22.33;10.48;;;8.80;99.90;;;;;;5032036;28;20032;-69
2023/03/20 05:12:41;;;;;;;20.77;8.25;;;8.70;99.90;;;;;;5032191;28;20017;-69
2023/03/20 05:15:07;;;;;;;22.95;8.65;;;8.70;99.90;;;;;;5031729;28;20045;-70
2023/03/20 05:17:33;;;;;;;24.50;10.23;;;8.70;99.90;;;;;;5031898;28;20077;-70
2023/03/20 05:19:58;;;;;;;26.10;9.75;;;8.70;99.90;;;;;;5032925;28;20461;-70
2023/03/20 05:22:24;;;;;;;24.42;8.65;;;8.70;99.90;;;;;;5036079;28;20048;-69
2023/03/20 05:24:50;;;;;;;22.70;9.35;;;8.70;99.90;;;;;;5035997;28;20029;-69
2023/03/20 05:27:16;;;;;;;22.55;9.15;;;8.70;99.90;;;;;;5017934;28;20079;-69
2023/03/20 05:29:42;;;;;;;22.90;9.80;;;8.70;99.90;;;;;;5035558;28;20120;-69
2023/03/20 05:32:07;;;;;;;19.30;9.20;;;8.70;99.90;;;;;;5035778;28;20386;-69
2023/03/20 05:34:33;;;;;;;20.80;8.07;;;8.70;99.90;;;;;;5035914;28;20377;-69
2023/03/20 05:36:59;;;;;;;21.50;9.73;;;8.70;99.90;;;;;;5035704;28;20056;-69
2023/03/20 05:39:24;;;;;;;23.90;10.65;;;8.70;99.90;;;;;;5035331;28;20060;-68
2023/03/20 05:41:50;;;;;;;25.05;9.07;;;8.70;99.90;;;;;;5016402;28;20045;-69
2023/03/20 05:44:16;;;;;;;23.30;9.07;;;8.70;99.90;;;;;;5035458;28;20071;-70
2023/03/20 05:46:41;;;;;;;20.92;8.90;;;8.70;99.90;;;;;;5035733;28;20014;-70
2023/03/20 05:49:07;;;;;;;24.50;10.23;;;8.70;99.90;;;;;;5035423;28;20022;-69
2023/03/20 05:51:33;;;;;;;24.67;8.05;;;8.70;99.90;;;;;;5035198;28;20029;-69
2023/03/20 05:53:58;;;;;;;27.17;10.88;;;8.70;99.90;;;;;;5035496;28;20026;-69
2023/03/20 05:56:24;;;;;;;22.75;9.30;;;8.70;99.90;;;;;;5034700;28;20148;-69
2023/03/20 05:58:50;;;;;;;23.15;9.18;;;8.70;99.90;;;;;;5035194;28;20032;-70
2023/03/20 06:01:20;;;;;;;24.02;9.90;;;8.80;99.90;;;;;;5034859;28;20116;-69
2023/03/20 06:03:49;;;;;;;26.98;10.75;;;8.80;99.90;;;;;;5033330;28;20095;-69
2023/03/20 06:06:16;;;;;;;25.25;11.38;;;8.80;99.90;;;;;;5035216;28;20035;-68
2023/03/20 06:08:42;;;;;;;20.60;9.48;;;8.80;99.90;;;;;;5035257;28;20057;-70
2023/03/20 06:11:09;;;;;;;24.42;9.65;;;8.80;99.90;;;;;;5034671;28;20021;-68
2023/03/20 06:13:34;;;;;;;20.17;7.80;;;8.80;99.90;;;;;;5034270;28;20827;-69
2023/03/20 06:16:00;;;;;;;20.05;8.18;;;8.90;99.90;;;;;;5034689;28;20045;-69
2023/03/20 06:18:26;;;;;;;26.77;10.40;;;8.90;99.90;;;;;;5034320;28;20083;-69
2023/03/20 06:20:56;;;;;;;21.27;9.90;;;8.90;99.90;;;;;;5033999;28;20117;-69
2023/03/20 06:23:23;;;;;;;25.77;9.98;;;8.80;99.90;;;;;;5034303;28;20045;-69
2023/03/20 06:25:49;;;;;;;23.83;10.82;;;8.80;99.90;;;;;;5034514;28;20029;-69
2023/03/20 06:28:15;;;;;;;25.00;8.85;;;8.90;99.90;;;;;;5034341;28;20501;-69
2023/03/20 06:30:41;;;;;;;26.10;9.50;;;8.90;99.90;;;;;;5034184;28;20049;-68
2023/03/20 06:33:08;;;;;;;16.38;7.70;;;8.90;99.90;;;;;;5034300;28;20453;-69
2023/03/20 06:35:34;;;;;;;24.52;8.30;;;9.00;99.90;;;;;;5034425;28;20108;-69
2023/03/20 06:38:01;;;;;;;25.33;9.25;;;8.90;99.90;;;;;;5022140;28;20029;-69
2023/03/20 06:40:29;;;;;;;21.75;9.50;;;8.90;99.90;;;;;;5034207;28;20025;-69
2023/03/20 06:42:55;;;;;;;20.70;8.88;;;9.00;99.90;;;;;;5033855;28;20482;-69
2023/03/20 06:45:21;;;;;;;24.80;8.93;;;9.00;99.90;;;;;;5027223;28;20025;-69
2023/03/20 06:47:47;;;;;;;22.20;8.27;;;9.00;99.90;;;;;;5021796;28;20060;-69
2023/03/20 06:50:13;;;;;;;17.45;7.18;;;9.10;99.90;;;;;;5034091;28;20049;-69
2023/03/20 06:52:39;;;;;;;21.05;8.93;;;9.00;99.90;;;;;;5034426;28;20029;-69
2023/03/20 06:55:05;;;;;;;21.95;7.68;;;9.10;99.90;;;;;;5033791;28;20097;-69
2023/03/20 06:57:31;;;;;;;20.13;8.00;;;9.10;99.90;;;;;;5034133;28;20025;-69
2023/03/20 06:59:57;;;;;;;18.58;7.30;;;9.10;99.90;;;;;;5033911;28;20052;-68
2023/03/20 07:02:23;;;;;;;22.70;8.60;;;9.10;99.90;;;;;;5033896;28;20103;-70
2023/03/20 07:04:49;;;;;;;25.25;7.78;;;9.20;99.90;;;;;;5033788;28;20377;-70
2023/03/20 07:07:16;;;;;;;15.20;6.28;;;9.20;99.90;;;;;;5033872;28;20065;-70
2023/03/20 07:09:42;;;;;;;21.67;7.30;;;9.20;99.90;;;;;;5033066;28;20469;-70
2023/03/20 07:12:13;;;;;;;16.00;5.93;;;9.20;99.90;;;;;;5033495;28;20021;-70
2023/03/20 07:14:40;;;;;;;19.10;6.97;;;9.20;99.90;;;;;;5033624;28;20354;-70
2023/03/20 07:17:07;;;;;;;23.45;8.00;;;9.20;99.90;;;;;;5033301;28;20034;-69
2023/03/20 07:19:33;;;;;;;21.10;7.43;;;9.20;99.90;;;;;;5032717;28;20038;-70
2023/03/20 07:22:01;;;;;;;21.23;6.80;;;9.30;99.90;;;;;;5033195;28;20130;-69
2023/03/20 07:24:27;;;;;;;20.90;7.20;;;9.30;99.90;;;;;;5032978;28;20389;-69
2023/03/20 07:26:52;;;;;;;24.20;7.75;;;9.30;99.90;;;;;;5033677;28;20040;-70
2023/03/20 07:29:18;;;;;;;18.65;6.80;;;9.30;99.90;;;;;;5033604;28;20163;-70
2023/03/20 07:31:43;;;;;;;21.60;7.32;;;9.40;99.90;;;;;;5031475;28;20124;-70
2023/03/20 07:34:10;;;;;;;18.67;5.45;;;9.40;99.90;;;;;;5033506;28;20057;-70
2023/03/20 07:36:36;;;;;;;14.98;5.22;;;9.40;99.90;;;;;;5033131;28;20598;-70
2023/03/20 07:39:02;;;;;;;20.50;5.93;;;9.40;99.90;;;;;;5032523;28;20108;-69
2023/03/20 07:41:27;;;;;;;20.73;5.53;;;9.40;99.90;;;;;;5032666;28;20041;-69
2023/03/20 07:43:53;;;;;;;11.52;3.95;;;9.50;99.90;;;;;;5032429;28;20114;-70
2023/03/20 07:46:19;;;;;;;20.08;5.38;;;9.50;99.90;;;;;;5032455;28;20065;-70
2023/03/20 07:48:44;;;;;;;23.15;6.00;;;9.50;99.90;;;;;;5031713;28;20218;-70
2023/03/20 07:51:10;;;;;;;15.18;5.30;;;9.40;99.90;;;;;;5025278;28;20069;-69
2023/03/20 07:53:36;;;;;;;24.98;6.72;;;9.40;99.90;;;;;;5026880;28;20465;-69
2023/03/20 07:56:01;;;;;;;18.88;5.35;;;9.40;99.90;;;;;;5032678;28;20486;-69
2023/03/20 07:58:27;;;;;;;18.20;6.45;;;9.40;99.90;;;;;;5032948;28;20027;-69
2023/03/20 08:00:52;;;;;;;16.85;5.03;;;9.50;99.90;;;;;;5031038;28;20473;-69
2023/03/20 08:03:18;;;;;;;20.88;5.53;;;9.40;99.90;;;;;;5031596;28;20508;-69
2023/03/20 08:05:44;;;;;;;19.73;5.55;;;9.40;99.90;;;;;;5030205;28;20465;-69
2023/03/20 08:08:09;;;;;;;22.27;4.93;;;9.40;99.90;;;;;;5030648;28;20153;-68
2023/03/20 08:10:35;;;;;;;21.42;6.63;;;9.30;99.90;;;;;;5030945;28;20037;-69
2023/03/20 08:13:00;;;;;;;19.45;4.85;;;9.30;99.90;;;;;;5031141;28;20025;-69
2023/03/20 08:15:26;;;;;;;14.77;3.67;;;9.30;99.90;;;;;;5030059;28;20033;-69
2023/03/20 08:17:51;;;;;;;19.98;6.30;;;9.20;99.90;;;;;;5031823;28;20042;-69
2023/03/20 08:20:18;;;;;;;15.55;4.38;;;9.20;99.90;;;;;;5032115;28;20032;-69
2023/03/20 08:22:44;;;;;;;26.13;6.35;;;9.10;99.90;;;;;;5031018;28;20461;-70
2023/03/20 08:25:10;;;;;;;7.18;2.95;;;9.20;99.90;;;;;;5031667;28;20037;-69
2023/03/20 08:27:37;;;;;;;24.05;6.55;;;9.20;99.90;;;;;;5032497;28;20087;-70
2023/03/20 08:30:03;;;;;;;33.22;11.38;;;9.20;99.90;;;;;;5030941;28;20064;-69
2023/03/20 08:32:29;;;;;;;23.52;8.70;;;9.30;99.90;;;;;;5030764;28;20532;-69
2023/03/20 08:34:55;;;;;;;18.45;5.10;;;9.30;99.90;;;;;;5032484;28;20029;-69
2023/03/20 08:37:21;;;;;;;17.60;5.20;;;9.30;99.90;;;;;;5031952;28;20530;-69
2023/03/20 08:39:47;;;;;;;16.25;4.90;;;9.30;99.90;;;;;;5029292;28;20029;-69
2023/03/20 08:42:13;;;;;;;22.23;5.10;;;9.30;99.90;;;;;;5027219;28;20107;-69
2023/03/20 08:44:38;;;;;;;20.20;5.45;;;9.30;99.90;;;;;;5031632;28;20489;-69
2023/03/20 08:47:06;;;;;;;21.73;4.35;;;9.30;99.90;;;;;;5032133;28;20051;-69
2023/03/20 08:49:35;;;;;;;26.13;6.70;;;9.40;99.90;;;;;;5032192;28;20053;-69
2023/03/20 08:52:01;;;;;;;14.38;4.03;;;9.40;99.90;;;;;;5015510;28;20033;-69
2023/03/20 08:54:27;;;;;;;19.08;3.85;;;9.40;99.90;;;;;;5027791;28;20036;-69
2023/03/20 08:56:52;;;;;;;20.33;5.32;;;9.40;99.90;;;;;;5032151;28;20493;-69
2023/03/20 08:59:18;;;;;;;11.90;2.55;;;9.50;99.90;;;;;;5031751;28;20103;-69
2023/03/20 09:01:44;;;;;;;17.77;5.05;;;9.50;99.90;;;;;;5030975;28;20041;-70
2023/03/20 09:04:12;;;;;;;17.70;4.95;;;9.50;99.90;;;;;;5030471;28;20032;-69
2023/03/20 09:06:37;;;;;;;10.93;2.85;;;9.40;99.90;;;;;;5030465;28;20076;-70
2023/03/20 09:09:03;;;;;;;17.92;4.10;;;9.40;99.90;;;;;;5031471;28;20068;-69
2023/03/20 09:11:29;;;;;;;13.95;4.65;;;9.40;99.90;;;;;;5030473;28;20029;-69
2023/03/20 09:13:55;;;;;;;18.30;5.22;;;9.50;99.90;;;;;;5032322;28;20076;-69
2023/03/20 09:16:30;;;;;;;14.50;4.40;;;9.50;99.90;;;;;;5031732;28;20025;-70
2023/03/20 09:18:56;;;;;;;19.30;4.35;;;9.50;99.90;;;;;;5018627;28;20030;-70
2023/03/20 09:21:21;;;;;;;16.60;3.85;;;9.50;99.90;;;;;;5026570;28;20056;-68
2023/03/20 09:23:47;;;;;;;15.00;4.70;;;9.50;99.90;;;;;;5031783;28;20033;-69
2023/03/20 09:26:12;;;;;;;24.48;5.85;;;9.50;99.90;;;;;;5031962;28;20056;-69
2023/03/20 09:28:38;;;;;;;22.13;5.70;;;9.50;99.90;;;;;;5012091;28;20052;-70
2023/03/20 09:31:04;;;;;;;22.60;6.65;;;9.60;99.90;;;;;;5029462;28;20045;-69
2023/03/20 09:33:30;;;;;;;18.70;4.85;;;9.70;99.90;;;;;;5031858;28;20124;-69
2023/03/20 09:35:55;;;;;;;18.05;4.55;;;9.70;99.90;;;;;;5032015;28;20025;-69
2023/03/20 09:38:21;;;;;;;28.38;7.07;;;9.60;99.90;;;;;;5031967;28;20056;-69
2023/03/20 09:40:55;;;;;;;14.18;4.57;;;9.60;99.90;;;;;;5032138;28;20029;-69
2023/03/20 09:43:27;;;;;;;17.00;5.50;;;9.60;99.90;;;;;;5031845;28;20075;-70
2023/03/20 09:46:34;;;;;;;17.23;5.40;;;9.50;99.90;;;;;;5031504;28;20026;-70
2023/03/20 09:49:21;;;;;;;15.05;5.75;;;9.60;99.90;;;;;;5029220;28;20045;-69
2023/03/20 09:51:56;;;;;;;21.15;6.40;;;9.60;99.90;;;;;;5029979;28;20033;-69
2023/03/20 09:54:36;;;;;;;25.02;8.45;;;9.50;99.90;;;;;;5027621;28;20096;-70
2023/03/20 09:57:03;;;;;;;21.20;7.07;;;9.50;99.90;;;;;;5028119;28;20028;-69
2023/03/20 09:59:31;;;;;;;19.27;7.93;;;9.50;99.90;;;;;;5030674;28;20017;-69
2023/03/20 10:02:04;;;;;;;20.88;7.78;;;9.50;99.90;;;;;;5030120;28;20073;-70
2023/03/20 10:04:31;;;;;;;18.65;7.30;;;9.50;99.90;;;;;;5030796;28;20025;-69
2023/03/20 10:06:57;;;;;;;26.20;9.73;;;9.50;99.90;;;;;;5032468;28;20104;-70
2023/03/20 10:09:29;;;;;;;20.52;6.72;;;9.50;99.90;;;;;;5034697;28;20113;-69
2023/03/20 10:12:30;;;;;;;24.20;9.13;;;9.50;99.90;;;;;;5033613;28;20103;-70
2023/03/20 10:15:14;;;;;;;22.15;10.82;;;9.50;99.90;;;;;;5033620;28;20040;-69
2023/03/20 10:17:54;;;;;;;22.77;10.05;;;9.50;99.90;;;;;;5033215;28;20102;-69
2023/03/20 10:20:39;;;;;;;21.65;9.02;;;9.50;99.90;;;;;;5034072;28;20068;-69
2023/03/20 10:23:33;;;;;;;18.27;8.45;;;9.50;99.90;;;;;;5031457;28;20050;-69
2023/03/20 10:26:10;;;;;;;31.77;12.05;;;9.50;99.90;;;;;;5033640;28;20036;-69
2023/03/20 10:28:39;;;;;;;29.63;12.13;;;9.40;99.90;;;;;;5015382;28;20072;-69
2023/03/20 10:31:32;;;;;;;27.85;13.07;;;9.40;99.90;;;;;;5031155;28;20114;-69
2023/03/20 10:34:29;;;;;;;25.58;13.93;;;9.40;99.90;;;;;;5032719;28;20112;-69
2023/03/20 10:37:26;;;;;;;32.58;14.43;;;9.40;99.90;;;;;;5017207;28;20140;-69
2023/03/20 10:40:05;;;;;;;26.65;12.00;;;9.40;99.90;;;;;;5030650;28;20486;-69
2023/03/20 10:42:36;;;;;;;30.10;13.77;;;9.50;99.90;;;;;;5033991;28;20128;-68
2023/03/20 10:45:26;;;;;;;23.58;10.38;;;9.50;99.90;;;;;;5034950;28;20037;-69
2023/03/20 10:47:53;;;;;;;24.75;13.02;;;9.60;99.90;;;;;;5034770;28;20029;-69
2023/03/20 10:50:40;;;;;;;24.10;9.55;;;9.60;99.90;;;;;;5034773;28;20124;-69
2023/03/20 10:53:07;;;;;;;28.45;12.05;;;9.70;99.90;;;;;;5034734;28;20025;-68
2023/03/20 10:55:38;;;;;;;22.08;11.18;;;9.80;99.90;;;;;;5034522;28;20040;-69
2023/03/20 10:58:15;;;;;;;24.50;12.68;;;9.90;99.90;;;;;;5017326;28;20038;-68
2023/03/20 11:00:42;;;;;;;18.48;9.63;;;9.90;99.90;;;;;;5034414;28;20037;-69
2023/03/20 11:03:19;;;;;;;20.23;9.98;;;9.90;99.90;;;;;;5034167;28;20116;-69
2023/03/20 11:05:47;;;;;;;24.55;10.95;;;9.80;99.90;;;;;;5034539;28;20080;-68
2023/03/20 11:08:14;;;;;;;24.80;12.73;;;9.70;99.90;;;;;;5033484;28;20040;-69
2023/03/20 11:10:41;;;;;;;22.30;12.50;;;9.60;99.90;;;;;;5034214;28;20049;-69
2023/03/20 11:13:18;;;;;;;24.38;13.45;;;9.70;99.90;;;;;;5034186;28;20017;-69
2023/03/20 11:15:44;;;;;;;25.40;13.63;;;9.60;99.90;;;;;;5034034;28;20025;-69
2023/03/20 11:18:15;;;;;;;29.48;14.32;;;9.70;99.90;;;;;;5033317;28;20026;-69
2023/03/20 11:20:53;;;;;;;25.25;13.15;;;9.70;99.90;;;;;;5034278;28;20549;-69
2023/03/20 11:23:24;;;;;;;25.88;12.68;;;9.80;99.90;;;;;;5033720;28;20130;-69
2023/03/20 11:26:02;;;;;;;18.23;9.43;;;9.90;99.90;;;;;;5034252;28;20108;-69
2023/03/20 11:28:37;;;;;;;24.60;11.30;;;9.90;99.90;;;;;;5033661;28;20390;-69
2023/03/20 11:31:12;;;;;;;23.92;12.10;;;9.80;99.90;;;;;;5033662;28;20500;-69
2023/03/20 11:33:42;;;;;;;22.80;11.60;;;9.90;99.90;;;;;;5033928;28;20033;-69
2023/03/20 11:36:25;;;;;;;26.98;13.13;;;9.90;99.90;;;;;;5033605;28;20432;-69
2023/03/20 11:38:52;;;;;;;21.88;10.43;;;9.90;99.90;;;;;;5033806;28;20065;-69
2023/03/20 11:41:26;;;;;;;26.60;11.30;;;9.90;99.90;;;;;;5033668;28;20382;-69
2023/03/20 11:43:52;;;;;;;22.58;11.48;;;9.90;99.90;;;;;;5033874;28;20053;-69
2023/03/20 11:46:23;;;;;;;20.42;9.75;;;9.90;99.90;;;;;;5033934;28;20032;-69
2023/03/20 11:49:21;;;;;;;21.05;11.13;;;9.90;99.90;;;;;;5033353;28;20025;-69
2023/03/20 11:51:47;;;;;;;20.73;10.32;;;9.90;99.90;;;;;;5033273;28;20029;-69
2023/03/20 11:54:18;;;;;;;22.42;10.30;;;9.90;99.90;;;;;;5033596;28;20025;-69
2023/03/20 11:56:59;;;;;;;19.52;9.93;;;9.90;99.90;;;;;;5033425;28;20048;-69
2023/03/20 11:59:32;;;;;;;16.30;8.40;;;9.90;99.90;;;;;;5032911;28;20037;-69
2023/03/20 12:02:00;;;;;;;18.23;8.52;;;10.00;99.90;;;;;;5033101;28;20168;-69
2023/03/20 12:04:32;;;;;;;16.00;8.75;;;9.90;99.90;;;;;;5033347;28;20033;-69
2023/03/20 12:07:16;;;;;;;10.95;6.20;;;9.90;99.90;;;;;;5033357;28;20025;-69
2023/03/20 12:09:55;;;;;;;14.48;7.05;;;9.90;99.90;;;;;;5032863;28;20029;-70
2023/03/20 12:12:48;;;;;;;11.98;6.35;;;9.80;99.90;;;;;;5033179;28;20057;-69
2023/03/20 12:15:29;;;;;;;15.35;7.15;;;10.00;99.90;;;;;;5033220;28;20057;-69
2023/03/20 12:18:07;;;;;;;10.87;5.97;;;10.00;99.90;;;;;;5033027;28;20551;-69
2023/03/20 12:20:43;;;;;;;9.45;4.20;;;10.00;99.90;;;;;;5033146;28;20776;-69
2023/03/20 12:23:11;;;;;;;8.75;5.20;;;9.90;99.90;;;;;;5030743;28;20094;-70
2023/03/20 12:26:01;;;;;;;11.18;5.03;;;9.90;99.90;;;;;;5032722;28;20026;-69
2023/03/20 12:28:46;;;;;;;6.85;4.38;;;10.00;99.90;;;;;;5032423;28;20033;-70
2023/03/20 12:31:59;;;;;;;8.57;4.05;;;10.00;99.90;;;;;;5032657;28;20053;-69
2023/03/20 12:34:33;;;;;;;7.18;3.67;;;9.90;99.90;;;;;;4971593;28;20042;-69
2023/03/20 12:36:59;;;;;;;8.70;4.13;;;9.90;99.90;;;;;;5022766;28;20124;-70
2023/03/20 12:39:37;;;;;;;7.65;3.95;;;9.90;99.90;;;;;;5032780;28;20105;-69
2023/03/20 12:42:06;;;;;;;8.60;4.72;;;10.00;99.90;;;;;;5012842;28;20462;-70
2023/03/20 12:44:47;;;;;;;8.20;4.43;;;10.00;99.90;;;;;;5032482;28;20095;-70
2023/03/20 12:47:35;;;;;;;7.88;3.80;;;10.00;99.90;;;;;;5032293;28;20039;-70
2023/03/20 12:50:25;;;;;;;8.85;3.53;;;10.00;99.90;;;;;;5032470;28;20437;-69
2023/03/20 12:52:59;;;;;;;9.13;3.90;;;9.90;99.90;;;;;;5032674;28;20186;-69
2023/03/20 12:55:38;;;;;;;6.15;3.10;;;9.90;99.90;;;;;;5032463;28;20034;-69
2023/03/20 12:58:16;;;;;;;5.85;3.30;;;9.90;99.90;;;;;;5032284;28;20060;-70
2023/03/20 13:01:02;;;;;;;7.72;3.92;;;9.90;99.90;;;;;;5032648;28;20072;-69
2023/03/20 13:03:46;;;;;;;8.50;3.45;;;9.90;99.90;;;;;;5025946;28;20041;-69
2023/03/20 13:06:35;;;;;;;5.32;3.00;;;9.90;99.90;;;;;;5015686;28;20564;-70
2023/03/20 13:09:29;;;;;;;6.70;3.75;;;9.90;99.90;;;;;;5010287;28;20116;-69